sensor_id;sensor_type;location;lat;lon;timestamp;P1;durP1;ratioP1;P2;durP2;ratioP2
36593;SDS011;22603;47.900;8.146;2023-02-08T00:02:07;17.73;;;7.53;;
36593;SDS011;22603;47.900;8.146;2023-02-08T00:04:55;11.53;;;4.77;;
36593;SDS011;22603;47.900;8.146;2023-02-08T00:07:42;22.10;;;7.37;;
36593;SDS011;22603;47.900;8.146;2023-02-08T00:10:29;13.47;;;5.53;;
36593;SDS011;22603;47.900;8.146;2023-02-08T00:13:17;13.97;;;6.37;;
36593;SDS011;22603;47.900;8.146;2023-02-08T00:16:05;12.43;;;6.10;;
36593;SDS011;22603;47.900;8.146;2023-02-08T00:18:53;15.53;;;5.07;;
36593;SDS011;22603;47.900;8.146;2023-02-08T00:21:41;21.13;;;7.03;;
36593;SDS011;22603;47.900;8.146;2023-02-08T00:24:29;12.57;;;5.60;;
36593;SDS011;22603;47.900;8.146;2023-02-08T00:27:16;13.27;;;5.07;;
36593;SDS011;22603;47.900;8.146;2023-02-08T00:30:05;13.70;;;5.10;;
36593;SDS011;22603;47.900;8.146;2023-02-08T00:33:02;11.20;;;3.20;;
36593;SDS011;22603;47.900;8.146;2023-02-08T00:35:57;14.37;;;4.27;;
36593;SDS011;22603;47.900;8.146;2023-02-08T00:38:51;15.97;;;4.23;;
36593;SDS011;22603;47.900;8.146;2023-02-08T00:41:42;16.60;;;4.00;;
36593;SDS011;22603;47.900;8.146;2023-02-08T00:44:30;11.03;;;4.80;;
36593;SDS011;22603;47.900;8.146;2023-02-08T00:47:18;14.63;;;6.37;;
36593;SDS011;22603;47.900;8.146;2023-02-08T00:50:09;14.60;;;4.33;;
36593;SDS011;22603;47.900;8.146;2023-02-08T00:53:02;11.37;;;3.60;;
36593;SDS011;22603;47.900;8.146;2023-02-08T00:56:05;12.93;;;3.43;;
36593;SDS011;22603;47.900;8.146;2023-02-08T00:59:15;9.13;;;3.57;;
36593;SDS011;22603;47.900;8.146;2023-02-08T01:02:09;12.27;;;3.30;;
36593;SDS011;22603;47.900;8.146;2023-02-08T01:05:00;10.70;;;4.10;;
36593;SDS011;22603;47.900;8.146;2023-02-08T01:07:49;16.70;;;3.77;;
36593;SDS011;22603;47.900;8.146;2023-02-08T01:10:40;13.93;;;5.40;;
36593;SDS011;22603;47.900;8.146;2023-02-08T01:13:32;14.57;;;4.67;;
36593;SDS011;22603;47.900;8.146;2023-02-08T01:16:22;7.87;;;2.93;;
36593;SDS011;22603;47.900;8.146;2023-02-08T01:19:12;14.90;;;4.73;;
36593;SDS011;22603;47.900;8.146;2023-02-08T01:22:01;9.70;;;3.10;;
36593;SDS011;22603;47.900;8.146;2023-02-08T01:24:49;12.50;;;5.13;;
36593;SDS011;22603;47.900;8.146;2023-02-08T01:27:39;11.50;;;3.70;;
36593;SDS011;22603;47.900;8.146;2023-02-08T01:30:29;11.70;;;3.50;;
36593;SDS011;22603;47.900;8.146;2023-02-08T01:33:16;12.60;;;4.20;;
36593;SDS011;22603;47.900;8.146;2023-02-08T01:36:05;9.13;;;3.37;;
36593;SDS011;22603;47.900;8.146;2023-02-08T01:38:54;15.60;;;3.30;;
36593;SDS011;22603;47.900;8.146;2023-02-08T01:41:54;6.83;;;2.77;;
36593;SDS011;22603;47.900;8.146;2023-02-08T01:48:19;10.73;;;3.87;;
36593;SDS011;22603;47.900;8.146;2023-02-08T01:51:13;8.93;;;3.47;;
36593;SDS011;22603;47.900;8.146;2023-02-08T01:54:06;9.67;;;3.90;;
36593;SDS011;22603;47.900;8.146;2023-02-08T01:56:57;10.80;;;3.73;;
36593;SDS011;22603;47.900;8.146;2023-02-08T01:59:47;10.93;;;5.37;;
36593;SDS011;22603;47.900;8.146;2023-02-08T02:06:32;9.93;;;4.13;;
36593;SDS011;22603;47.900;8.146;2023-02-08T02:09:25;6.77;;;3.47;;
36593;SDS011;22603;47.900;8.146;2023-02-08T02:12:28;7.67;;;3.03;;
36593;SDS011;22603;47.900;8.146;2023-02-08T02:15:17;11.33;;;4.20;;
36593;SDS011;22603;47.900;8.146;2023-02-08T02:18:05;11.13;;;4.27;;
36593;SDS011;22603;47.900;8.146;2023-02-08T02:20:58;11.30;;;4.77;;
36593;SDS011;22603;47.900;8.146;2023-02-08T02:24:13;9.27;;;4.17;;
36593;SDS011;22603;47.900;8.146;2023-02-08T02:27:28;10.70;;;3.13;;
36593;SDS011;22603;47.900;8.146;2023-02-08T02:30:52;11.10;;;4.37;;
36593;SDS011;22603;47.900;8.146;2023-02-08T02:34:10;5.87;;;2.43;;
36593;SDS011;22603;47.900;8.146;2023-02-08T02:37:09;11.17;;;2.93;;
36593;SDS011;22603;47.900;8.146;2023-02-08T02:40:09;10.37;;;3.77;;
36593;SDS011;22603;47.900;8.146;2023-02-08T02:43:07;5.77;;;2.97;;
36593;SDS011;22603;47.900;8.146;2023-02-08T02:46:21;22.77;;;4.40;;
36593;SDS011;22603;47.900;8.146;2023-02-08T02:49:15;8.47;;;3.43;;
36593;SDS011;22603;47.900;8.146;2023-02-08T02:52:09;7.43;;;4.17;;
36593;SDS011;22603;47.900;8.146;2023-02-08T02:55:03;10.77;;;4.03;;
36593;SDS011;22603;47.900;8.146;2023-02-08T02:57:54;12.57;;;4.47;;
36593;SDS011;22603;47.900;8.146;2023-02-08T03:00:44;8.67;;;3.87;;
36593;SDS011;22603;47.900;8.146;2023-02-08T03:03:39;4.63;;;2.67;;
36593;SDS011;22603;47.900;8.146;2023-02-08T03:06:32;8.47;;;3.07;;
36593;SDS011;22603;47.900;8.146;2023-02-08T03:09:30;6.13;;;2.80;;
36593;SDS011;22603;47.900;8.146;2023-02-08T03:12:34;11.57;;;4.53;;
36593;SDS011;22603;47.900;8.146;2023-02-08T03:15:29;6.77;;;2.60;;
36593;SDS011;22603;47.900;8.146;2023-02-08T03:18:28;4.20;;;2.03;;
36593;SDS011;22603;47.900;8.146;2023-02-08T03:21:24;9.90;;;2.93;;
36593;SDS011;22603;47.900;8.146;2023-02-08T03:24:26;7.83;;;3.47;;
36593;SDS011;22603;47.900;8.146;2023-02-08T03:27:21;6.10;;;2.73;;
36593;SDS011;22603;47.900;8.146;2023-02-08T03:30:17;8.27;;;3.13;;
36593;SDS011;22603;47.900;8.146;2023-02-08T03:33:09;10.40;;;3.70;;
36593;SDS011;22603;47.900;8.146;2023-02-08T03:36:07;6.93;;;3.97;;
36593;SDS011;22603;47.900;8.146;2023-02-08T03:39:00;9.70;;;2.30;;
36593;SDS011;22603;47.900;8.146;2023-02-08T03:41:53;9.03;;;3.53;;
36593;SDS011;22603;47.900;8.146;2023-02-08T03:44:44;5.83;;;3.23;;
36593;SDS011;22603;47.900;8.146;2023-02-08T03:47:36;7.83;;;4.60;;
36593;SDS011;22603;47.900;8.146;2023-02-08T03:50:26;7.43;;;2.33;;
36593;SDS011;22603;47.900;8.146;2023-02-08T03:53:15;5.43;;;2.97;;
36593;SDS011;22603;47.900;8.146;2023-02-08T03:56:07;8.23;;;2.50;;
36593;SDS011;22603;47.900;8.146;2023-02-08T03:59:01;11.57;;;3.30;;
36593;SDS011;22603;47.900;8.146;2023-02-08T04:01:52;6.40;;;3.43;;
36593;SDS011;22603;47.900;8.146;2023-02-08T04:04:45;9.00;;;4.20;;
36593;SDS011;22603;47.900;8.146;2023-02-08T04:07:33;6.50;;;3.03;;
36593;SDS011;22603;47.900;8.146;2023-02-08T04:10:20;9.40;;;3.43;;
36593;SDS011;22603;47.900;8.146;2023-02-08T04:13:07;8.20;;;3.70;;
36593;SDS011;22603;47.900;8.146;2023-02-08T04:15:56;9.87;;;2.80;;
36593;SDS011;22603;47.900;8.146;2023-02-08T04:18:43;7.97;;;3.37;;
36593;SDS011;22603;47.900;8.146;2023-02-08T04:21:30;11.20;;;3.90;;
36593;SDS011;22603;47.900;8.146;2023-02-08T04:24:17;7.87;;;3.43;;
36593;SDS011;22603;47.900;8.146;2023-02-08T04:27:04;8.90;;;2.63;;
36593;SDS011;22603;47.900;8.146;2023-02-08T04:29:51;4.77;;;1.83;;
36593;SDS011;22603;47.900;8.146;2023-02-08T04:32:40;6.17;;;2.00;;
36593;SDS011;22603;47.900;8.146;2023-02-08T04:35:26;5.33;;;2.87;;
36593;SDS011;22603;47.900;8.146;2023-02-08T04:38:14;7.00;;;2.20;;
36593;SDS011;22603;47.900;8.146;2023-02-08T04:41:03;2.67;;;1.87;;
36593;SDS011;22603;47.900;8.146;2023-02-08T04:43:51;7.43;;;2.17;;
36593;SDS011;22603;47.900;8.146;2023-02-08T04:46:38;7.63;;;2.50;;
36593;SDS011;22603;47.900;8.146;2023-02-08T04:49:27;5.00;;;2.00;;
36593;SDS011;22603;47.900;8.146;2023-02-08T04:52:14;12.10;;;3.40;;
36593;SDS011;22603;47.900;8.146;2023-02-08T04:55:01;10.23;;;3.30;;
36593;SDS011;22603;47.900;8.146;2023-02-08T04:57:48;8.20;;;3.17;;
36593;SDS011;22603;47.900;8.146;2023-02-08T05:00:35;12.27;;;3.77;;
36593;SDS011;22603;47.900;8.146;2023-02-08T05:03:22;8.40;;;2.83;;
36593;SDS011;22603;47.900;8.146;2023-02-08T05:06:12;9.00;;;3.20;;
36593;SDS011;22603;47.900;8.146;2023-02-08T05:08:59;7.30;;;2.67;;
36593;SDS011;22603;47.900;8.146;2023-02-08T05:11:46;5.77;;;2.30;;
36593;SDS011;22603;47.900;8.146;2023-02-08T05:14:33;6.43;;;2.87;;
36593;SDS011;22603;47.900;8.146;2023-02-08T05:17:21;8.10;;;2.63;;
36593;SDS011;22603;47.900;8.146;2023-02-08T05:20:08;3.30;;;1.83;;
36593;SDS011;22603;47.900;8.146;2023-02-08T05:22:57;8.87;;;2.77;;
36593;SDS011;22603;47.900;8.146;2023-02-08T05:25:44;4.60;;;1.63;;
36593;SDS011;22603;47.900;8.146;2023-02-08T05:28:31;6.33;;;2.63;;
36593;SDS011;22603;47.900;8.146;2023-02-08T05:31:20;7.87;;;2.37;;
36593;SDS011;22603;47.900;8.146;2023-02-08T05:34:08;5.87;;;2.33;;
36593;SDS011;22603;47.900;8.146;2023-02-08T05:36:56;4.53;;;1.83;;
36593;SDS011;22603;47.900;8.146;2023-02-08T05:39:44;6.63;;;2.10;;
36593;SDS011;22603;47.900;8.146;2023-02-08T05:42:31;7.77;;;2.37;;
36593;SDS011;22603;47.900;8.146;2023-02-08T05:45:18;5.73;;;2.40;;
36593;SDS011;22603;47.900;8.146;2023-02-08T05:48:05;2.07;;;1.53;;
36593;SDS011;22603;47.900;8.146;2023-02-08T05:50:52;3.83;;;1.57;;
36593;SDS011;22603;47.900;8.146;2023-02-08T05:53:39;6.77;;;2.00;;
36593;SDS011;22603;47.900;8.146;2023-02-08T05:56:29;3.47;;;1.37;;
36593;SDS011;22603;47.900;8.146;2023-02-08T05:59:15;4.93;;;1.63;;
36593;SDS011;22603;47.900;8.146;2023-02-08T06:02:02;3.70;;;2.17;;
36593;SDS011;22603;47.900;8.146;2023-02-08T06:04:49;2.23;;;1.83;;
36593;SDS011;22603;47.900;8.146;2023-02-08T06:07:36;2.70;;;1.13;;
36593;SDS011;22603;47.900;8.146;2023-02-08T06:10:23;8.83;;;3.43;;
36593;SDS011;22603;47.900;8.146;2023-02-08T06:13:12;3.37;;;1.63;;
36593;SDS011;22603;47.900;8.146;2023-02-08T06:15:59;4.00;;;1.80;;
36593;SDS011;22603;47.900;8.146;2023-02-08T06:18:46;7.47;;;2.10;;
36593;SDS011;22603;47.900;8.146;2023-02-08T06:21:33;7.93;;;3.00;;
36593;SDS011;22603;47.900;8.146;2023-02-08T06:24:20;5.80;;;2.73;;
36593;SDS011;22603;47.900;8.146;2023-02-08T06:27:09;5.97;;;2.23;;
36593;SDS011;22603;47.900;8.146;2023-02-08T06:29:57;5.27;;;2.30;;
36593;SDS011;22603;47.900;8.146;2023-02-08T06:32:44;3.40;;;1.73;;
36593;SDS011;22603;47.900;8.146;2023-02-08T06:35:31;4.33;;;1.93;;
36593;SDS011;22603;47.900;8.146;2023-02-08T06:38:18;4.03;;;1.87;;
36593;SDS011;22603;47.900;8.146;2023-02-08T06:41:05;9.80;;;4.63;;
36593;SDS011;22603;47.900;8.146;2023-02-08T06:43:52;4.37;;;1.97;;
36593;SDS011;22603;47.900;8.146;2023-02-08T06:46:44;4.90;;;2.73;;
36593;SDS011;22603;47.900;8.146;2023-02-08T06:49:31;8.20;;;2.03;;
36593;SDS011;22603;47.900;8.146;2023-02-08T06:52:18;16.20;;;2.53;;
36593;SDS011;22603;47.900;8.146;2023-02-08T06:55:06;8.87;;;3.07;;
36593;SDS011;22603;47.900;8.146;2023-02-08T06:57:53;8.40;;;3.20;;
36593;SDS011;22603;47.900;8.146;2023-02-08T07:00:41;11.33;;;2.93;;
36593;SDS011;22603;47.900;8.146;2023-02-08T07:03:30;7.17;;;3.03;;
36593;SDS011;22603;47.900;8.146;2023-02-08T07:06:18;11.83;;;3.20;;
36593;SDS011;22603;47.900;8.146;2023-02-08T07:09:06;15.60;;;4.73;;
36593;SDS011;22603;47.900;8.146;2023-02-08T07:11:53;8.23;;;2.97;;
36593;SDS011;22603;47.900;8.146;2023-02-08T07:14:40;8.63;;;2.80;;
36593;SDS011;22603;47.900;8.146;2023-02-08T07:17:29;12.30;;;2.27;;
36593;SDS011;22603;47.900;8.146;2023-02-08T07:20:17;3.40;;;1.27;;
36593;SDS011;22603;47.900;8.146;2023-02-08T07:23:04;4.23;;;1.93;;
36593;SDS011;22603;47.900;8.146;2023-02-08T07:25:55;6.63;;;2.23;;
36593;SDS011;22603;47.900;8.146;2023-02-08T07:28:43;7.27;;;2.70;;
36593;SDS011;22603;47.900;8.146;2023-02-08T07:31:30;4.60;;;1.87;;
36593;SDS011;22603;47.900;8.146;2023-02-08T07:34:17;9.80;;;4.33;;
36593;SDS011;22603;47.900;8.146;2023-02-08T07:37:07;8.13;;;4.40;;
36593;SDS011;22603;47.900;8.146;2023-02-08T07:39:53;10.80;;;4.03;;
36593;SDS011;22603;47.900;8.146;2023-02-08T07:42:41;11.83;;;5.43;;
36593;SDS011;22603;47.900;8.146;2023-02-08T07:45:28;5.30;;;2.47;;
36593;SDS011;22603;47.900;8.146;2023-02-08T07:48:16;9.40;;;2.97;;
36593;SDS011;22603;47.900;8.146;2023-02-08T07:51:03;5.17;;;1.90;;
36593;SDS011;22603;47.900;8.146;2023-02-08T07:53:52;4.50;;;1.83;;
36593;SDS011;22603;47.900;8.146;2023-02-08T07:56:39;7.30;;;2.97;;
36593;SDS011;22603;47.900;8.146;2023-02-08T07:59:26;3.33;;;1.90;;
36593;SDS011;22603;47.900;8.146;2023-02-08T08:02:13;6.63;;;2.03;;
36593;SDS011;22603;47.900;8.146;2023-02-08T08:05:01;8.93;;;3.53;;
36593;SDS011;22603;47.900;8.146;2023-02-08T08:07:47;9.30;;;3.90;;
36593;SDS011;22603;47.900;8.146;2023-02-08T08:10:36;9.03;;;2.80;;
36593;SDS011;22603;47.900;8.146;2023-02-08T08:13:24;8.23;;;2.80;;
36593;SDS011;22603;47.900;8.146;2023-02-08T08:16:12;6.77;;;2.40;;
36593;SDS011;22603;47.900;8.146;2023-02-08T08:18:59;8.03;;;2.23;;
36593;SDS011;22603;47.900;8.146;2023-02-08T08:21:46;6.27;;;2.23;;
36593;SDS011;22603;47.900;8.146;2023-02-08T08:24:33;7.27;;;2.43;;
36593;SDS011;22603;47.900;8.146;2023-02-08T08:27:22;8.43;;;2.47;;
36593;SDS011;22603;47.900;8.146;2023-02-08T08:30:10;11.90;;;2.40;;
36593;SDS011;22603;47.900;8.146;2023-02-08T08:32:58;7.33;;;2.60;;
36593;SDS011;22603;47.900;8.146;2023-02-08T08:35:45;7.90;;;2.30;;
36593;SDS011;22603;47.900;8.146;2023-02-08T08:38:32;7.43;;;2.67;;
36593;SDS011;22603;47.900;8.146;2023-02-08T08:41:19;6.40;;;2.43;;
36593;SDS011;22603;47.900;8.146;2023-02-08T08:44:08;5.87;;;2.40;;
36593;SDS011;22603;47.900;8.146;2023-02-08T08:46:55;6.87;;;2.30;;
36593;SDS011;22603;47.900;8.146;2023-02-08T08:49:43;7.60;;;2.37;;
36593;SDS011;22603;47.900;8.146;2023-02-08T08:52:30;6.47;;;2.40;;
36593;SDS011;22603;47.900;8.146;2023-02-08T08:55:17;7.60;;;2.60;;
36593;SDS011;22603;47.900;8.146;2023-02-08T08:58:04;8.97;;;2.73;;
36593;SDS011;22603;47.900;8.146;2023-02-08T09:00:52;8.93;;;3.03;;
36593;SDS011;22603;47.900;8.146;2023-02-08T09:03:40;6.77;;;2.67;;
36593;SDS011;22603;47.900;8.146;2023-02-08T09:06:27;6.90;;;2.63;;
36593;SDS011;22603;47.900;8.146;2023-02-08T09:09:14;8.40;;;3.17;;
36593;SDS011;22603;47.900;8.146;2023-02-08T09:12:01;11.40;;;3.00;;
36593;SDS011;22603;47.900;8.146;2023-02-08T09:14:49;7.70;;;2.80;;
36593;SDS011;22603;47.900;8.146;2023-02-08T09:17:37;7.93;;;2.63;;
36593;SDS011;22603;47.900;8.146;2023-02-08T09:20:24;8.03;;;3.00;;
36593;SDS011;22603;47.900;8.146;2023-02-08T09:23:11;6.90;;;2.43;;
36593;SDS011;22603;47.900;8.146;2023-02-08T09:26:00;6.83;;;2.60;;
36593;SDS011;22603;47.900;8.146;2023-02-08T09:28:47;7.43;;;3.13;;
36593;SDS011;22603;47.900;8.146;2023-02-08T09:31:35;12.43;;;3.03;;
36593;SDS011;22603;47.900;8.146;2023-02-08T09:34:25;13.10;;;3.27;;
36593;SDS011;22603;47.900;8.146;2023-02-08T09:37:12;8.53;;;2.90;;
36593;SDS011;22603;47.900;8.146;2023-02-08T09:40:01;10.27;;;2.70;;
36593;SDS011;22603;47.900;8.146;2023-02-08T09:42:49;7.17;;;2.60;;
36593;SDS011;22603;47.900;8.146;2023-02-08T09:45:45;7.87;;;2.67;;
36593;SDS011;22603;47.900;8.146;2023-02-08T09:48:44;9.20;;;2.60;;
36593;SDS011;22603;47.900;8.146;2023-02-08T09:51:34;9.97;;;2.63;;
36593;SDS011;22603;47.900;8.146;2023-02-08T09:54:25;13.23;;;2.83;;
36593;SDS011;22603;47.900;8.146;2023-02-08T09:57:18;8.17;;;2.30;;
36593;SDS011;22603;47.900;8.146;2023-02-08T10:00:10;6.37;;;2.40;;
36593;SDS011;22603;47.900;8.146;2023-02-08T10:03:01;7.67;;;2.80;;
36593;SDS011;22603;47.900;8.146;2023-02-08T10:05:48;6.90;;;2.30;;
36593;SDS011;22603;47.900;8.146;2023-02-08T10:08:37;8.10;;;2.63;;
36593;SDS011;22603;47.900;8.146;2023-02-08T10:11:39;6.93;;;2.30;;
36593;SDS011;22603;47.900;8.146;2023-02-08T10:14:36;9.13;;;2.47;;
36593;SDS011;22603;47.900;8.146;2023-02-08T10:17:38;8.47;;;2.20;;
36593;SDS011;22603;47.900;8.146;2023-02-08T10:20:36;10.30;;;2.37;;
36593;SDS011;22603;47.900;8.146;2023-02-08T10:23:39;8.40;;;2.30;;
36593;SDS011;22603;47.900;8.146;2023-02-08T10:26:39;7.47;;;2.40;;
36593;SDS011;22603;47.900;8.146;2023-02-08T10:29:35;7.10;;;2.30;;
36593;SDS011;22603;47.900;8.146;2023-02-08T10:32:38;9.27;;;2.53;;
36593;SDS011;22603;47.900;8.146;2023-02-08T10:35:40;7.50;;;2.33;;
36593;SDS011;22603;47.900;8.146;2023-02-08T10:38:32;8.57;;;2.60;;
36593;SDS011;22603;47.900;8.146;2023-02-08T10:41:33;6.13;;;1.90;;
36593;SDS011;22603;47.900;8.146;2023-02-08T10:44:24;14.50;;;2.10;;
36593;SDS011;22603;47.900;8.146;2023-02-08T10:47:19;5.33;;;2.20;;
36593;SDS011;22603;47.900;8.146;2023-02-08T10:50:22;7.83;;;2.30;;
36593;SDS011;22603;47.900;8.146;2023-02-08T10:53:16;9.07;;;2.93;;
36593;SDS011;22603;47.900;8.146;2023-02-08T10:56:04;9.93;;;2.37;;
36593;SDS011;22603;47.900;8.146;2023-02-08T10:58:53;5.60;;;2.30;;
36593;SDS011;22603;47.900;8.146;2023-02-08T11:01:40;8.13;;;2.00;;
36593;SDS011;22603;47.900;8.146;2023-02-08T11:04:28;13.93;;;2.77;;
36593;SDS011;22603;47.900;8.146;2023-02-08T11:07:17;7.40;;;2.63;;
36593;SDS011;22603;47.900;8.146;2023-02-08T11:13:14;6.23;;;2.20;;
36593;SDS011;22603;47.900;8.146;2023-02-08T11:16:06;9.10;;;2.33;;
36593;SDS011;22603;47.900;8.146;2023-02-08T11:18:58;9.60;;;2.80;;
36593;SDS011;22603;47.900;8.146;2023-02-08T11:21:48;8.50;;;2.50;;
36593;SDS011;22603;47.900;8.146;2023-02-08T11:24:37;8.07;;;2.37;;
36593;SDS011;22603;47.900;8.146;2023-02-08T11:27:29;9.23;;;2.57;;
36593;SDS011;22603;47.900;8.146;2023-02-08T11:30:20;8.40;;;2.80;;
36593;SDS011;22603;47.900;8.146;2023-02-08T11:33:14;8.77;;;2.13;;
36593;SDS011;22603;47.900;8.146;2023-02-08T11:36:04;7.77;;;2.43;;
36593;SDS011;22603;47.900;8.146;2023-02-08T11:38:54;5.57;;;2.00;;
36593;SDS011;22603;47.900;8.146;2023-02-08T11:41:42;8.37;;;2.87;;
36593;SDS011;22603;47.900;8.146;2023-02-08T11:44:30;8.83;;;2.13;;
36593;SDS011;22603;47.900;8.146;2023-02-08T11:47:22;7.67;;;2.77;;
36593;SDS011;22603;47.900;8.146;2023-02-08T11:50:20;7.07;;;2.20;;
36593;SDS011;22603;47.900;8.146;2023-02-08T11:53:16;11.57;;;2.37;;
36593;SDS011;22603;47.900;8.146;2023-02-08T11:56:16;11.60;;;2.77;;
36593;SDS011;22603;47.900;8.146;2023-02-08T11:59:14;6.53;;;2.00;;
36593;SDS011;22603;47.900;8.146;2023-02-08T12:05:29;6.27;;;1.73;;
36593;SDS011;22603;47.900;8.146;2023-02-08T12:08:26;24.70;;;3.33;;
36593;SDS011;22603;47.900;8.146;2023-02-08T12:11:21;11.70;;;2.80;;
36593;SDS011;22603;47.900;8.146;2023-02-08T12:14:18;5.63;;;1.77;;
36593;SDS011;22603;47.900;8.146;2023-02-08T12:17:22;6.17;;;2.20;;
36593;SDS011;22603;47.900;8.146;2023-02-08T12:20:33;6.10;;;2.20;;
36593;SDS011;22603;47.900;8.146;2023-02-08T12:23:30;7.70;;;2.47;;
36593;SDS011;22603;47.900;8.146;2023-02-08T12:26:38;7.80;;;2.13;;
36593;SDS011;22603;47.900;8.146;2023-02-08T12:29:37;7.00;;;2.00;;
36593;SDS011;22603;47.900;8.146;2023-02-08T12:32:39;4.00;;;2.00;;
36593;SDS011;22603;47.900;8.146;2023-02-08T12:35:44;7.53;;;1.63;;
36593;SDS011;22603;47.900;8.146;2023-02-08T12:39:02;5.30;;;2.03;;
36593;SDS011;22603;47.900;8.146;2023-02-08T12:42:22;4.60;;;1.73;;
36593;SDS011;22603;47.900;8.146;2023-02-08T12:48:39;7.20;;;2.30;;
36593;SDS011;22603;47.900;8.146;2023-02-08T12:51:44;4.23;;;1.80;;
36593;SDS011;22603;47.900;8.146;2023-02-08T12:54:38;10.57;;;2.10;;
36593;SDS011;22603;47.900;8.146;2023-02-08T12:57:28;6.10;;;2.07;;
36593;SDS011;22603;47.900;8.146;2023-02-08T13:00:17;9.33;;;2.60;;
36593;SDS011;22603;47.900;8.146;2023-02-08T13:03:09;4.40;;;1.90;;
36593;SDS011;22603;47.900;8.146;2023-02-08T13:06:04;6.87;;;2.30;;
36593;SDS011;22603;47.900;8.146;2023-02-08T13:08:56;6.83;;;2.20;;
36593;SDS011;22603;47.900;8.146;2023-02-08T13:11:49;6.57;;;2.17;;
36593;SDS011;22603;47.900;8.146;2023-02-08T13:14:41;4.77;;;1.80;;
36593;SDS011;22603;47.900;8.146;2023-02-08T13:17:34;2.33;;;1.03;;
36593;SDS011;22603;47.900;8.146;2023-02-08T13:20:28;9.07;;;2.53;;
36593;SDS011;22603;47.900;8.146;2023-02-08T13:23:23;5.53;;;1.70;;
36593;SDS011;22603;47.900;8.146;2023-02-08T13:26:14;7.00;;;2.03;;
36593;SDS011;22603;47.900;8.146;2023-02-08T13:29:02;5.33;;;2.10;;
36593;SDS011;22603;47.900;8.146;2023-02-08T13:31:51;7.40;;;2.60;;
36593;SDS011;22603;47.900;8.146;2023-02-08T13:34:42;8.80;;;2.80;;
36593;SDS011;22603;47.900;8.146;2023-02-08T13:37:34;9.13;;;2.27;;
36593;SDS011;22603;47.900;8.146;2023-02-08T13:40:22;6.23;;;2.13;;
36593;SDS011;22603;47.900;8.146;2023-02-08T13:43:19;7.80;;;2.30;;
36593;SDS011;22603;47.900;8.146;2023-02-08T13:46:19;10.60;;;2.30;;
36593;SDS011;22603;47.900;8.146;2023-02-08T13:49:09;6.27;;;2.20;;
36593;SDS011;22603;47.900;8.146;2023-02-08T13:55:51;8.37;;;2.50;;
36593;SDS011;22603;47.900;8.146;2023-02-08T14:08:29;6.37;;;2.63;;
36593;SDS011;22603;47.900;8.146;2023-02-08T14:11:29;10.67;;;2.47;;
36593;SDS011;22603;47.900;8.146;2023-02-08T14:14:25;6.33;;;2.43;;
36593;SDS011;22603;47.900;8.146;2023-02-08T14:17:16;14.33;;;2.90;;
36593;SDS011;22603;47.900;8.146;2023-02-08T14:20:05;10.10;;;2.67;;
36593;SDS011;22603;47.900;8.146;2023-02-08T14:22:55;9.90;;;2.67;;
36593;SDS011;22603;47.900;8.146;2023-02-08T14:25:44;8.83;;;2.53;;
36593;SDS011;22603;47.900;8.146;2023-02-08T14:28:34;13.10;;;2.47;;
36593;SDS011;22603;47.900;8.146;2023-02-08T14:31:34;7.13;;;2.30;;
36593;SDS011;22603;47.900;8.146;2023-02-08T15:13:44;8.40;;;2.77;;
36593;SDS011;22603;47.900;8.146;2023-02-08T15:16:41;10.40;;;3.00;;
36593;SDS011;22603;47.900;8.146;2023-02-08T15:19:29;14.87;;;4.00;;
36593;SDS011;22603;47.900;8.146;2023-02-08T15:22:26;8.37;;;2.63;;
36593;SDS011;22603;47.900;8.146;2023-02-08T15:25:22;9.17;;;2.93;;
36593;SDS011;22603;47.900;8.146;2023-02-08T15:28:16;9.70;;;3.57;;
36593;SDS011;22603;47.900;8.146;2023-02-08T15:31:07;7.87;;;2.77;;
36593;SDS011;22603;47.900;8.146;2023-02-08T15:33:58;8.33;;;2.60;;
36593;SDS011;22603;47.900;8.146;2023-02-08T15:36:48;8.63;;;2.73;;
36593;SDS011;22603;47.900;8.146;2023-02-08T15:39:36;13.23;;;3.53;;
36593;SDS011;22603;47.900;8.146;2023-02-08T15:42:25;12.80;;;2.97;;
36593;SDS011;22603;47.900;8.146;2023-02-08T15:45:21;11.10;;;3.37;;
36593;SDS011;22603;47.900;8.146;2023-02-08T15:48:10;11.23;;;3.40;;
36593;SDS011;22603;47.900;8.146;2023-02-08T15:50:58;8.20;;;3.63;;
36593;SDS011;22603;47.900;8.146;2023-02-08T15:53:48;7.57;;;2.57;;
36593;SDS011;22603;47.900;8.146;2023-02-08T15:56:37;9.87;;;2.60;;
36593;SDS011;22603;47.900;8.146;2023-02-08T15:59:28;12.33;;;2.90;;
36593;SDS011;22603;47.900;8.146;2023-02-08T16:02:20;9.63;;;3.23;;
36593;SDS011;22603;47.900;8.146;2023-02-08T16:05:18;7.83;;;2.43;;
36593;SDS011;22603;47.900;8.146;2023-02-08T16:08:13;9.50;;;3.47;;
36593;SDS011;22603;47.900;8.146;2023-02-08T16:11:07;11.80;;;3.67;;
36593;SDS011;22603;47.900;8.146;2023-02-08T16:13:57;8.57;;;2.93;;
36593;SDS011;22603;47.900;8.146;2023-02-08T16:16:46;12.73;;;2.97;;
36593;SDS011;22603;47.900;8.146;2023-02-08T16:19:34;11.77;;;3.47;;
36593;SDS011;22603;47.900;8.146;2023-02-08T16:22:24;11.00;;;3.20;;
36593;SDS011;22603;47.900;8.146;2023-02-08T16:25:21;11.20;;;3.87;;
36593;SDS011;22603;47.900;8.146;2023-02-08T16:28:16;22.00;;;4.07;;
36593;SDS011;22603;47.900;8.146;2023-02-08T16:31:11;10.70;;;4.23;;
36593;SDS011;22603;47.900;8.146;2023-02-08T16:34:05;10.30;;;3.80;;
36593;SDS011;22603;47.900;8.146;2023-02-08T16:36:59;11.00;;;3.90;;
36593;SDS011;22603;47.900;8.146;2023-02-08T16:39:52;8.90;;;2.90;;
36593;SDS011;22603;47.900;8.146;2023-02-08T16:42:40;11.20;;;4.30;;
36593;SDS011;22603;47.900;8.146;2023-02-08T16:45:28;11.17;;;4.07;;
36593;SDS011;22603;47.900;8.146;2023-02-08T16:48:28;11.87;;;3.63;;
36593;SDS011;22603;47.900;8.146;2023-02-08T16:51:20;10.07;;;3.30;;
36593;SDS011;22603;47.900;8.146;2023-02-08T16:54:10;12.53;;;4.47;;
36593;SDS011;22603;47.900;8.146;2023-02-08T16:57:01;9.43;;;2.73;;
36593;SDS011;22603;47.900;8.146;2023-02-08T16:59:47;10.77;;;3.83;;
36593;SDS011;22603;47.900;8.146;2023-02-08T17:02:35;9.33;;;4.00;;
36593;SDS011;22603;47.900;8.146;2023-02-08T17:05:24;9.77;;;3.40;;
36593;SDS011;22603;47.900;8.146;2023-02-08T17:08:14;10.70;;;4.80;;
36593;SDS011;22603;47.900;8.146;2023-02-08T17:11:03;8.03;;;3.03;;
36593;SDS011;22603;47.900;8.146;2023-02-08T17:13:51;11.17;;;4.03;;
36593;SDS011;22603;47.900;8.146;2023-02-08T17:16:38;13.53;;;4.37;;
36593;SDS011;22603;47.900;8.146;2023-02-08T17:19:25;14.67;;;4.27;;
36593;SDS011;22603;47.900;8.146;2023-02-08T17:22:12;9.87;;;3.80;;
36593;SDS011;22603;47.900;8.146;2023-02-08T17:24:59;13.37;;;4.10;;
36593;SDS011;22603;47.900;8.146;2023-02-08T17:27:46;9.57;;;3.83;;
36593;SDS011;22603;47.900;8.146;2023-02-08T17:30:39;13.10;;;5.60;;
36593;SDS011;22603;47.900;8.146;2023-02-08T17:33:27;12.30;;;4.27;;
36593;SDS011;22603;47.900;8.146;2023-02-08T17:36:17;8.70;;;3.30;;
36593;SDS011;22603;47.900;8.146;2023-02-08T17:39:04;11.83;;;5.07;;
36593;SDS011;22603;47.900;8.146;2023-02-08T17:41:51;23.70;;;5.33;;
36593;SDS011;22603;47.900;8.146;2023-02-08T17:44:38;11.17;;;3.87;;
36593;SDS011;22603;47.900;8.146;2023-02-08T17:47:27;21.37;;;5.30;;
36593;SDS011;22603;47.900;8.146;2023-02-08T17:50:14;13.80;;;4.53;;
36593;SDS011;22603;47.900;8.146;2023-02-08T17:53:03;34.43;;;9.40;;
36593;SDS011;22603;47.900;8.146;2023-02-08T17:55:50;14.20;;;3.80;;
36593;SDS011;22603;47.900;8.146;2023-02-08T17:58:36;13.20;;;4.40;;
36593;SDS011;22603;47.900;8.146;2023-02-08T18:01:24;14.23;;;4.30;;
36593;SDS011;22603;47.900;8.146;2023-02-08T18:04:13;12.40;;;4.27;;
36593;SDS011;22603;47.900;8.146;2023-02-08T18:07:01;13.20;;;4.63;;
36593;SDS011;22603;47.900;8.146;2023-02-08T18:09:47;11.70;;;3.90;;
36593;SDS011;22603;47.900;8.146;2023-02-08T18:12:34;10.67;;;4.30;;
36593;SDS011;22603;47.900;8.146;2023-02-08T18:15:22;12.20;;;4.93;;
36593;SDS011;22603;47.900;8.146;2023-02-08T18:18:09;13.27;;;4.40;;